Time;durP1;ratioP1;P1;durP2;ratioP2;P2;SDS_P1;SDS_P2;PMS_P1;PMS_P2;Temp;Humidity;BMP_temperature;BMP_pressure;BME280_temperature;BME280_humidity;BME280_pressure;Samples;Min_cycle;Max_cycle;Signal;HPM_P1;HPM_P2
2023/08/28 00:02:14;;;;;;;3.20;1.60;;;20.80;84.30;;;;;;5073940;28;20024;-78
2023/08/28 00:04:39;;;;;;;4.45;1.35;;;20.80;84.30;;;;;;5073430;28;20020;-78
2023/08/28 00:07:05;;;;;;;3.00;1.60;;;20.80;84.40;;;;;;5091584;28;20724;-78
2023/08/28 00:09:31;;;;;;;2.75;1.55;;;20.70;84.50;;;;;;5073621;28;20035;-78
2023/08/28 00:11:56;;;;;;;2.88;1.50;;;20.70;84.50;;;;;;5091934;28;20020;-78
2023/08/28 00:14:23;;;;;;;2.70;1.30;;;20.70;84.50;;;;;;5073281;28;20016;-78
2023/08/28 00:16:49;;;;;;;2.80;1.40;;;20.70;84.60;;;;;;5072986;28;20034;-79
2023/08/28 00:19:15;;;;;;;3.67;1.23;;;20.70;84.60;;;;;;5073619;28;20179;-79
2023/08/28 00:21:40;;;;;;;3.42;1.42;;;20.70;84.60;;;;;;5073024;28;20050;-79
2023/08/28 00:24:06;;;;;;;2.75;1.38;;;20.70;84.70;;;;;;5091627;28;20024;-79
2023/08/28 00:26:32;;;;;;;2.83;1.42;;;20.70;84.70;;;;;;5073198;28;20024;-78
2023/08/28 00:28:57;;;;;;;2.58;1.20;;;20.70;84.80;;;;;;5091597;28;20029;-78
2023/08/28 00:31:23;;;;;;;2.17;1.25;;;20.70;84.70;;;;;;5091152;28;20032;-78
2023/08/28 00:33:48;;;;;;;2.83;1.38;;;20.70;84.80;;;;;;5072942;28;20480;-78
2023/08/28 00:36:15;;;;;;;3.10;1.50;;;20.70;84.70;;;;;;5071864;28;20745;-78
2023/08/28 00:38:41;;;;;;;2.53;1.13;;;20.70;84.80;;;;;;5073012;28;20028;-78
2023/08/28 00:41:07;;;;;;;2.95;1.20;;;20.70;84.80;;;;;;5072963;28;20031;-79
2023/08/28 00:43:32;;;;;;;2.05;1.05;;;20.70;84.80;;;;;;5072718;28;20024;-78
2023/08/28 00:45:58;;;;;;;2.45;1.40;;;20.70;84.80;;;;;;5072986;28;20341;-77
2023/08/28 00:48:25;;;;;;;3.50;1.50;;;20.70;84.80;;;;;;5062217;28;20036;-78
2023/08/28 00:50:51;;;;;;;3.28;1.45;;;20.70;84.80;;;;;;5052810;28;20056;-78
2023/08/28 00:53:17;;;;;;;2.55;1.17;;;20.70;84.80;;;;;;5070618;28;20039;-78
2023/08/28 00:55:43;;;;;;;2.60;1.23;;;20.70;84.80;;;;;;5070241;28;20030;-78
2023/08/28 00:58:09;;;;;;;2.83;1.40;;;20.70;84.90;;;;;;5052494;28;20109;-78
2023/08/28 01:00:35;;;;;;;3.28;1.20;;;20.70;85.00;;;;;;5070300;28;20451;-78
2023/08/28 01:03:01;;;;;;;2.92;1.40;;;20.70;84.90;;;;;;5052466;28;20020;-78
2023/08/28 01:05:39;;;;;;;2.72;1.30;;;20.70;84.90;;;;;;5052334;28;20052;-78
2023/08/28 01:08:23;;;;;;;2.30;1.20;;;20.70;85.00;;;;;;5052311;28;20566;-79
2023/08/28 01:10:58;;;;;;;2.75;1.50;;;20.70;85.00;;;;;;5052211;28;20032;-78
2023/08/28 01:13:45;;;;;;;3.60;1.50;;;20.60;85.00;;;;;;5070298;28;20099;-78
2023/08/28 01:16:10;;;;;;;2.80;1.50;;;20.70;85.10;;;;;;5052200;28;20028;-78
2023/08/28 01:18:37;;;;;;;2.60;1.30;;;20.70;85.10;;;;;;5052135;28;20396;-78
2023/08/28 01:21:03;;;;;;;2.13;1.13;;;20.70;85.10;;;;;;5070121;28;20028;-78
2023/08/28 01:23:41;;;;;;;2.85;1.38;;;20.70;85.10;;;;;;5070041;28;20032;-79
2023/08/28 01:26:07;;;;;;;3.10;1.33;;;20.70;85.00;;;;;;5070168;28;20103;-78
2023/08/28 01:28:33;;;;;;;2.30;1.30;;;20.80;85.10;;;;;;5051716;28;20090;-78
2023/08/28 01:30:58;;;;;;;2.13;1.23;;;20.70;85.00;;;;;;5052184;28;20028;-78
2023/08/28 01:33:24;;;;;;;2.47;1.50;;;20.80;85.00;;;;;;5051837;28;20496;-77
2023/08/28 01:36:15;;;;;;;3.97;1.60;;;20.80;85.10;;;;;;5050795;28;20033;-78
2023/08/28 01:38:56;;;;;;;2.40;1.23;;;20.70;85.00;;;;;;5014426;28;20040;-78
2023/08/28 01:41:24;;;;;;;3.10;1.30;;;20.70;85.10;;;;;;5070051;28;20033;-78
2023/08/28 01:43:56;;;;;;;3.88;1.30;;;20.70;85.20;;;;;;5069380;28;20385;-78
2023/08/28 01:46:22;;;;;;;2.33;1.27;;;20.70;85.20;;;;;;5051828;28;20024;-78
2023/08/28 01:48:53;;;;;;;2.50;1.30;;;20.70;85.30;;;;;;5051555;28;20024;-78
2023/08/28 01:51:19;;;;;;;2.45;1.20;;;20.70;85.40;;;;;;5069671;28;20070;-78
2023/08/28 01:53:46;;;;;;;2.47;1.20;;;20.70;85.40;;;;;;5051489;28;20043;-78
2023/08/28 01:56:16;;;;;;;3.33;1.45;;;20.60;85.30;;;;;;5068795;28;20107;-79
2023/08/28 01:58:46;;;;;;;2.30;1.33;;;20.60;85.30;;;;;;5051163;28;20139;-78
2023/08/28 02:01:12;;;;;;;2.72;1.30;;;20.60;85.30;;;;;;5069499;28;20024;-78
2023/08/28 02:03:38;;;;;;;1.98;1.10;;;20.60;85.30;;;;;;5051384;28;20070;-78
2023/08/28 02:06:05;;;;;;;2.42;1.05;;;20.70;85.40;;;;;;5069710;28;20025;-77
2023/08/28 02:08:30;;;;;;;2.53;1.40;;;20.60;85.40;;;;;;5051435;28;20035;-78
2023/08/28 02:10:56;;;;;;;2.38;1.23;;;20.70;85.40;;;;;;5051483;28;20220;-78
2023/08/28 02:13:22;;;;;;;2.38;1.20;;;20.70;85.50;;;;;;5051244;28;20154;-78
2023/08/28 02:15:47;;;;;;;2.25;1.30;;;20.60;85.40;;;;;;5068689;28;20052;-77
2023/08/28 02:18:13;;;;;;;2.65;1.33;;;20.70;85.50;;;;;;5051138;28;20056;-78
2023/08/28 02:20:40;;;;;;;2.25;1.40;;;20.60;85.50;;;;;;5050818;28;20119;-79
2023/08/28 02:23:05;;;;;;;2.33;1.20;;;20.60;85.40;;;;;;5051027;28;20031;-78
2023/08/28 02:25:31;;;;;;;3.58;1.30;;;20.60;85.40;;;;;;5068163;28;20032;-77
2023/08/28 02:27:57;;;;;;;2.40;1.25;;;20.60;85.50;;;;;;5068738;28;20024;-78
2023/08/28 02:30:23;;;;;;;2.25;1.38;;;20.70;85.50;;;;;;5050989;28;20466;-78
2023/08/28 02:32:49;;;;;;;2.03;1.30;;;20.60;85.50;;;;;;5051153;28;20143;-77
2023/08/28 02:35:14;;;;;;;2.65;1.30;;;20.60;85.50;;;;;;5050911;28;20473;-79
2023/08/28 02:37:40;;;;;;;2.53;1.25;;;20.60;85.50;;;;;;5050766;28;20174;-78
2023/08/28 02:40:06;;;;;;;2.28;1.15;;;20.60;85.60;;;;;;5050960;28;20035;-78
2023/08/28 02:42:32;;;;;;;2.45;1.20;;;20.50;85.60;;;;;;5068896;28;20490;-78
2023/08/28 02:44:58;;;;;;;2.10;1.10;;;20.60;85.60;;;;;;5050665;28;20167;-78
2023/08/28 02:47:23;;;;;;;1.77;1.00;;;20.60;85.70;;;;;;5050373;28;20025;-78
2023/08/28 02:49:49;;;;;;;2.42;1.30;;;20.60;85.70;;;;;;5050815;28;20031;-78
2023/08/28 02:52:15;;;;;;;2.55;1.33;;;20.70;85.70;;;;;;5050767;28;20028;-78
2023/08/28 02:54:40;;;;;;;1.92;1.13;;;20.60;85.60;;;;;;5050488;28;20025;-78
2023/08/28 02:57:06;;;;;;;2.55;1.40;;;20.70;85.60;;;;;;5049942;28;20044;-78
2023/08/28 02:59:32;;;;;;;2.05;1.23;;;20.70;85.60;;;;;;5057104;28;20020;-77
2023/08/28 03:01:57;;;;;;;2.83;1.40;;;20.70;85.60;;;;;;5070155;28;20119;-79
2023/08/28 03:04:23;;;;;;;2.65;1.38;;;20.70;85.60;;;;;;5070461;28;20118;-78
2023/08/28 03:06:49;;;;;;;1.80;1.13;;;20.70;85.60;;;;;;5088931;28;20119;-78
2023/08/28 03:09:14;;;;;;;1.92;1.30;;;20.70;85.60;;;;;;5088305;28;20081;-78
2023/08/28 03:11:40;;;;;;;2.95;1.35;;;20.70;85.60;;;;;;5070415;28;20053;-78
2023/08/28 03:14:06;;;;;;;3.58;1.67;;;20.60;85.50;;;;;;5070226;28;20482;-77
2023/08/28 03:16:31;;;;;;;2.60;1.40;;;20.60;85.50;;;;;;5070373;28;20569;-78
2023/08/28 03:18:57;;;;;;;2.70;1.48;;;20.70;85.60;;;;;;5070218;28;20024;-77
2023/08/28 03:21:23;;;;;;;2.33;1.33;;;20.60;85.70;;;;;;5088731;28;20047;-78
2023/08/28 03:23:48;;;;;;;2.08;1.20;;;20.60;85.70;;;;;;5088016;28;20020;-77
2023/08/28 03:26:14;;;;;;;2.47;1.23;;;20.60;85.80;;;;;;5088279;28;20048;-78
2023/08/28 03:28:39;;;;;;;2.92;1.40;;;20.60;85.80;;;;;;5088436;28;20067;-80
2023/08/28 03:31:05;;;;;;;2.17;1.23;;;20.60;85.80;;;;;;5090705;28;20486;-81
2023/08/28 03:33:31;;;;;;;2.30;1.20;;;20.60;85.80;;;;;;5072182;28;20926;-79
2023/08/28 03:35:57;;;;;;;3.03;1.40;;;20.50;85.80;;;;;;5073101;28;20555;-79
2023/08/28 03:38:23;;;;;;;3.67;1.30;;;20.60;85.90;;;;;;5069783;28;20111;-77
2023/08/28 03:40:48;;;;;;;2.45;1.25;;;20.60;85.90;;;;;;5082844;28;20063;-79
2023/08/28 03:43:14;;;;;;;1.98;1.17;;;20.60;85.90;;;;;;5069889;28;20024;-79
2023/08/28 03:45:40;;;;;;;2.17;1.30;;;20.60;85.90;;;;;;5070315;28;20020;-78
2023/08/28 03:48:06;;;;;;;2.78;1.35;;;20.60;86.00;;;;;;5069842;28;20198;-79
2023/08/28 03:50:32;;;;;;;2.67;1.40;;;20.60;86.00;;;;;;5051859;28;20033;-79
2023/08/28 03:52:59;;;;;;;2.15;1.20;;;20.60;86.00;;;;;;5068524;28;20025;-79
2023/08/28 03:55:27;;;;;;;1.67;1.10;;;20.60;86.10;;;;;;5069166;28;20032;-78
2023/08/28 03:57:53;;;;;;;2.95;1.40;;;20.60;86.10;;;;;;5068872;28;20101;-80
2023/08/28 04:00:19;;;;;;;2.22;1.23;;;20.60;86.10;;;;;;5069605;28;20545;-79
2023/08/28 04:02:46;;;;;;;3.10;1.50;;;20.50;86.00;;;;;;5050033;28;20028;-79
2023/08/28 04:05:12;;;;;;;2.60;1.10;;;20.50;86.10;;;;;;5050275;28;20154;-78
2023/08/28 04:07:38;;;;;;;1.83;1.10;;;20.60;86.10;;;;;;5050045;28;20070;-79
2023/08/28 04:10:04;;;;;;;2.60;1.20;;;20.60;86.10;;;;;;5049968;28;20492;-79
2023/08/28 04:12:30;;;;;;;2.17;1.10;;;20.60;86.70;;;;;;5071281;28;20024;-81
2023/08/28 04:14:57;;;;;;;3.28;1.38;;;20.60;86.20;;;;;;5071572;28;20043;-78
2023/08/28 04:17:23;;;;;;;1.98;1.20;;;20.60;86.20;;;;;;5072864;28;20032;-80
2023/08/28 04:19:50;;;;;;;1.95;1.08;;;20.60;86.30;;;;;;5072590;28;20017;-79
2023/08/28 04:22:15;;;;;;;2.58;1.17;;;20.60;86.20;;;;;;5073054;28;20434;-77
2023/08/28 04:24:41;;;;;;;2.30;1.23;;;20.60;86.20;;;;;;5070184;28;20028;-77
2023/08/28 04:27:06;;;;;;;2.47;1.40;;;20.60;86.20;;;;;;5071386;28;20025;-78
2023/08/28 04:29:32;;;;;;;1.60;1.10;;;20.60;86.20;;;;;;5071647;28;20028;-78
2023/08/28 04:31:57;;;;;;;2.35;1.40;;;20.60;86.10;;;;;;5070021;28;20485;-77
2023/08/28 04:34:23;;;;;;;2.17;1.13;;;20.70;86.10;;;;;;5071271;28;20074;-78
2023/08/28 04:36:48;;;;;;;2.05;1.38;;;20.60;86.00;;;;;;5069681;28;20067;-78
2023/08/28 04:39:14;;;;;;;2.00;1.20;;;20.70;86.10;;;;;;5071129;28;20021;-78
2023/08/28 04:41:39;;;;;;;2.17;1.30;;;20.70;86.10;;;;;;5073911;28;20039;-78
2023/08/28 04:44:05;;;;;;;2.40;1.40;;;20.60;86.00;;;;;;5053376;28;20050;-77
2023/08/28 04:46:30;;;;;;;2.75;1.40;;;20.60;86.00;;;;;;5053099;28;20113;-78
2023/08/28 04:48:56;;;;;;;2.80;1.27;;;20.60;85.90;;;;;;5071014;28;20400;-77
2023/08/28 04:51:21;;;;;;;3.03;1.30;;;20.60;86.00;;;;;;5071083;28;20033;-79
2023/08/28 04:53:47;;;;;;;2.05;1.17;;;20.60;86.10;;;;;;5070414;28;20103;-77
2023/08/28 04:56:12;;;;;;;2.13;1.20;;;20.60;86.20;;;;;;5070832;28;20489;-76
2023/08/28 04:58:38;;;;;;;2.45;1.40;;;20.60;86.70;;;;;;5073186;28;20025;-78
2023/08/28 05:01:03;;;;;;;2.28;1.30;;;20.60;86.20;;;;;;5072558;28;20519;-79
2023/08/28 05:03:29;;;;;;;3.30;1.50;;;20.60;86.30;;;;;;5090553;28;20273;-77
2023/08/28 05:05:54;;;;;;;2.42;1.25;;;20.60;86.30;;;;;;5090478;28;20047;-78
2023/08/28 05:08:20;;;;;;;1.80;1.20;;;20.60;86.20;;;;;;5072665;28;20426;-77
2023/08/28 05:10:46;;;;;;;2.30;1.45;;;20.60;86.20;;;;;;5072624;28;20069;-77
2023/08/28 05:13:12;;;;;;;3.30;1.58;;;20.60;86.30;;;;;;5065623;28;20518;-78
2023/08/28 05:15:37;;;;;;;4.45;2.20;;;20.60;86.10;;;;;;5090526;28;20016;-77
2023/08/28 05:18:03;;;;;;;3.05;1.80;;;20.50;86.20;;;;;;5072396;28;20101;-77
2023/08/28 05:20:29;;;;;;;12.27;3.00;;;20.60;86.40;;;;;;5075653;28;20071;-78
2023/08/28 05:22:55;;;;;;;3.78;2.25;;;20.50;86.10;;;;;;5091865;28;20024;-79
2023/08/28 05:25:20;;;;;;;5.80;2.10;;;20.60;86.10;;;;;;5091888;28;20086;-78
2023/08/28 05:27:46;;;;;;;5.55;2.17;;;20.50;85.90;;;;;;5073773;28;20050;-79
2023/08/28 05:30:12;;;;;;;4.35;1.90;;;20.50;85.80;;;;;;5092291;28;20103;-79
2023/08/28 05:32:37;;;;;;;6.47;2.75;;;20.60;85.80;;;;;;5073951;28;20051;-79
2023/08/28 05:35:04;;;;;;;6.38;2.63;;;20.60;85.70;;;;;;5095343;28;20032;-77
2023/08/28 05:37:29;;;;;;;6.38;2.70;;;20.50;85.70;;;;;;5076560;28;20027;-78
2023/08/28 05:39:55;;;;;;;5.18;2.63;;;20.60;85.60;;;;;;5083135;28;20423;-78
2023/08/28 05:42:20;;;;;;;4.85;2.40;;;20.50;85.60;;;;;;5074325;28;20024;-78
2023/08/28 05:44:46;;;;;;;5.43;2.90;;;20.60;85.70;;;;;;5074149;28;20028;-77
2023/08/28 05:47:11;;;;;;;5.47;2.78;;;20.60;85.60;;;;;;5073987;28;20082;-78
2023/08/28 05:49:37;;;;;;;6.95;3.10;;;20.60;85.60;;;;;;5056421;28;20094;-78
2023/08/28 05:52:03;;;;;;;6.63;3.10;;;20.60;85.40;;;;;;5056181;28;20093;-78
2023/08/28 05:54:29;;;;;;;6.20;3.22;;;20.70;85.40;;;;;;5074013;28;20190;-77
2023/08/28 05:56:55;;;;;;;6.25;3.00;;;20.60;85.20;;;;;;5055926;28;20068;-78
2023/08/28 05:59:20;;;;;;;6.57;3.40;;;20.60;85.20;;;;;;5074245;28;20024;-78
2023/08/28 06:01:46;;;;;;;5.13;3.03;;;20.60;85.10;;;;;;5074060;28;20115;-79
2023/08/28 06:04:11;;;;;;;7.10;3.63;;;20.70;85.20;;;;;;5055964;28;20021;-77
2023/08/28 06:06:41;;;;;;;7.47;3.17;;;20.60;85.00;;;;;;5055755;28;20020;-78
2023/08/28 06:09:07;;;;;;;6.57;3.25;;;20.70;85.10;;;;;;5073785;28;20366;-78
2023/08/28 06:11:33;;;;;;;5.57;3.33;;;20.70;84.90;;;;;;5056035;28;20044;-78
2023/08/28 06:13:59;;;;;;;5.78;3.10;;;20.70;85.00;;;;;;5055886;28;20484;-79
2023/08/28 06:16:24;;;;;;;4.75;2.97;;;20.70;85.00;;;;;;5073785;28;20032;-78
2023/08/28 06:18:50;;;;;;;5.15;2.95;;;20.70;85.00;;;;;;5055761;28;20027;-78
2023/08/28 06:21:15;;;;;;;5.65;3.15;;;20.70;85.10;;;;;;5073598;28;20028;-78
2023/08/28 06:23:41;;;;;;;4.55;2.65;;;20.70;85.10;;;;;;5073299;28;20031;-78
2023/08/28 06:26:07;;;;;;;4.68;3.00;;;20.70;85.10;;;;;;5073598;28;20031;-78
2023/08/28 06:28:33;;;;;;;6.78;3.00;;;20.70;85.10;;;;;;5055503;28;20024;-78
2023/08/28 06:30:59;;;;;;;5.38;3.15;;;20.70;85.20;;;;;;5055697;28;20078;-78
2023/08/28 06:33:24;;;;;;;5.47;3.05;;;20.70;85.20;;;;;;5073254;28;20056;-77
2023/08/28 06:35:51;;;;;;;5.07;3.20;;;20.70;85.20;;;;;;5054511;28;20031;-78
2023/08/28 06:38:17;;;;;;;6.80;3.40;;;20.70;85.30;;;;;;5073230;28;20021;-78
2023/08/28 06:40:48;;;;;;;5.32;2.90;;;20.70;85.30;;;;;;5055494;28;20032;-78
2023/08/28 06:43:14;;;;;;;5.10;2.65;;;20.70;85.30;;;;;;5073413;28;20013;-78
2023/08/28 06:45:39;;;;;;;5.50;3.15;;;20.60;85.30;;;;;;5054909;28;20525;-78
2023/08/28 06:48:05;;;;;;;5.15;3.05;;;20.70;85.40;;;;;;5055193;28;20031;-80
2023/08/28 06:50:33;;;;;;;5.35;3.05;;;20.70;85.30;;;;;;5073249;28;20524;-78
2023/08/28 06:52:58;;;;;;;5.72;3.28;;;20.70;85.40;;;;;;5073021;28;20025;-78
2023/08/28 06:55:25;;;;;;;5.78;3.25;;;20.60;85.30;;;;;;5072927;28;20412;-78
2023/08/28 06:57:50;;;;;;;5.15;3.10;;;20.70;85.40;;;;;;5070417;28;20162;-78
2023/08/28 07:00:16;;;;;;;5.90;3.22;;;20.60;85.30;;;;;;5055140;28;20103;-78
2023/08/28 07:02:42;;;;;;;5.13;3.03;;;20.70;85.30;;;;;;5072688;28;20426;-80
2023/08/28 07:05:07;;;;;;;6.00;3.60;;;20.70;85.40;;;;;;5054662;28;20134;-77
2023/08/28 07:07:33;;;;;;;5.97;3.30;;;20.70;85.30;;;;;;5054951;28;20065;-78
2023/08/28 07:09:58;;;;;;;5.97;3.42;;;20.70;85.30;;;;;;5054979;28;20047;-77
2023/08/28 07:12:24;;;;;;;5.28;3.28;;;20.70;85.40;;;;;;5072879;28;20107;-78
2023/08/28 07:15:25;;;;;;;5.00;3.05;;;20.70;85.50;;;;;;5072730;28;20495;-78
2023/08/28 07:17:50;;;;;;;6.07;3.28;;;20.70;85.50;;;;;;5072529;28;20116;-78
2023/08/28 07:20:16;;;;;;;5.57;3.20;;;20.70;85.40;;;;;;5054777;28;20060;-78
2023/08/28 07:22:41;;;;;;;5.40;3.13;;;20.80;85.30;;;;;;5072707;28;20032;-78
2023/08/28 07:25:07;;;;;;;5.15;3.05;;;20.80;85.10;;;;;;5072597;28;20028;-77
2023/08/28 07:27:33;;;;;;;6.05;3.35;;;20.80;85.00;;;;;;5072701;28;20505;-78
2023/08/28 07:29:59;;;;;;;5.90;3.72;;;20.90;85.10;;;;;;5072646;28;20065;-78
2023/08/28 07:32:24;;;;;;;5.15;3.13;;;20.90;84.90;;;;;;5054777;28;20020;-77
2023/08/28 07:34:50;;;;;;;5.53;3.22;;;20.90;84.80;;;;;;5054567;28;20070;-78
2023/08/28 07:37:15;;;;;;;5.47;3.10;;;20.90;84.80;;;;;;5072659;28;20508;-77
2023/08/28 07:39:41;;;;;;;4.40;2.92;;;21.00;84.80;;;;;;5072485;28;20060;-78
2023/08/28 07:42:06;;;;;;;5.43;3.35;;;21.00;84.80;;;;;;5054638;28;20032;-78
2023/08/28 07:44:32;;;;;;;5.22;3.17;;;21.00;84.70;;;;;;5054440;28;20121;-78
2023/08/28 07:46:57;;;;;;;5.35;3.33;;;21.00;84.70;;;;;;5075459;28;20482;-78
2023/08/28 07:49:23;;;;;;;5.38;3.53;;;21.10;84.60;;;;;;5058548;28;20025;-79
2023/08/28 07:51:48;;;;;;;6.03;3.72;;;21.10;84.50;;;;;;5058532;28;20017;-78
2023/08/28 07:54:14;;;;;;;5.30;3.33;;;21.10;84.30;;;;;;5076136;28;20024;-78
2023/08/28 07:56:39;;;;;;;5.47;3.58;;;21.10;84.50;;;;;;5058168;28;20028;-78
2023/08/28 07:59:05;;;;;;;6.55;3.65;;;21.10;84.60;;;;;;5076302;28;20467;-78
2023/08/28 08:01:31;;;;;;;5.30;3.53;;;21.10;84.60;;;;;;5058450;28;20017;-77
2023/08/28 08:03:57;;;;;;;5.47;3.70;;;21.10;84.70;;;;;;5076119;28;20028;-78
2023/08/28 08:06:23;;;;;;;6.00;3.90;;;21.10;84.60;;;;;;5058157;28;20021;-77
2023/08/28 08:08:48;;;;;;;6.38;3.85;;;21.10;84.70;;;;;;5076099;28;20056;-78
2023/08/28 08:11:14;;;;;;;5.72;3.75;;;21.10;84.70;;;;;;5058235;28;20492;-78
2023/08/28 08:13:40;;;;;;;6.10;4.13;;;21.10;84.60;;;;;;5076072;28;20036;-78
2023/08/28 08:16:06;;;;;;;6.05;3.80;;;21.10;84.70;;;;;;5076065;28;20036;-78
2023/08/28 08:18:32;;;;;;;6.35;4.00;;;21.10;84.60;;;;;;5075784;28;20028;-78
2023/08/28 08:20:57;;;;;;;5.95;4.10;;;21.10;84.70;;;;;;5057840;28;20024;-78
2023/08/28 08:23:23;;;;;;;6.35;4.10;;;21.20;84.70;;;;;;5057668;28;20031;-80
2023/08/28 08:25:49;;;;;;;7.78;4.35;;;21.10;84.50;;;;;;5058144;28;20024;-78
2023/08/28 08:28:17;;;;;;;6.45;4.10;;;21.20;84.50;;;;;;5057963;28;20643;-78
2023/08/28 08:30:43;;;;;;;5.80;3.90;;;21.20;84.40;;;;;;5075767;28;20025;-78
2023/08/28 08:33:09;;;;;;;6.22;4.35;;;21.20;84.30;;;;;;5057949;28;20082;-78
2023/08/28 08:35:35;;;;;;;6.50;4.45;;;21.30;84.20;;;;;;5057831;28;20025;-78
2023/08/28 08:38:01;;;;;;;6.20;4.20;;;21.30;84.10;;;;;;5057614;28;20048;-78
2023/08/28 08:40:27;;;;;;;5.80;4.03;;;21.30;83.90;;;;;;5075651;28;20028;-78
2023/08/28 08:42:53;;;;;;;6.97;4.40;;;21.40;84.00;;;;;;5075538;28;20012;-78
2023/08/28 08:45:22;;;;;;;6.40;4.53;;;21.40;83.90;;;;;;5075322;28;20440;-78
2023/08/28 08:47:50;;;;;;;7.00;4.50;;;21.40;83.80;;;;;;5057536;28;20400;-78
2023/08/28 08:50:19;;;;;;;6.50;4.50;;;21.50;83.70;;;;;;5057784;28;20481;-78
2023/08/28 08:52:46;;;;;;;6.10;4.28;;;21.50;83.60;;;;;;5057605;28;20386;-78
2023/08/28 08:55:25;;;;;;;6.97;4.50;;;21.50;83.50;;;;;;5057483;28;20028;-78
2023/08/28 08:57:55;;;;;;;6.57;4.20;;;21.50;83.50;;;;;;5056336;28;20144;-77
2023/08/28 09:00:21;;;;;;;6.20;4.10;;;21.50;83.50;;;;;;5057355;28;20023;-78
2023/08/28 09:02:47;;;;;;;6.53;4.22;;;21.50;83.60;;;;;;5075082;28;20155;-78
2023/08/28 09:05:14;;;;;;;6.40;4.30;;;21.50;83.60;;;;;;5075109;28;20025;-78
2023/08/28 09:07:42;;;;;;;6.47;4.20;;;21.50;83.70;;;;;;5057200;28;20025;-78
2023/08/28 09:10:08;;;;;;;6.75;4.07;;;21.50;83.80;;;;;;5075217;28;20032;-78
2023/08/28 09:12:33;;;;;;;6.40;4.47;;;21.50;83.80;;;;;;5057360;28;20024;-78
2023/08/28 09:14:59;;;;;;;5.47;3.75;;;21.40;83.90;;;;;;5074989;28;20025;-78
2023/08/28 09:17:26;;;;;;;6.25;4.13;;;21.40;84.00;;;;;;5075020;28;20499;-78
2023/08/28 09:19:53;;;;;;;5.97;4.13;;;21.40;84.10;;;;;;5057049;28;20112;-78
2023/08/28 09:22:25;;;;;;;5.43;3.83;;;21.40;84.20;;;;;;5074929;28;20020;-79
2023/08/28 09:24:51;;;;;;;5.78;3.92;;;21.40;84.20;;;;;;5074727;28;20017;-78
2023/08/28 09:27:18;;;;;;;6.15;4.10;;;21.40;84.30;;;;;;5074808;28;20021;-78
2023/08/28 09:29:44;;;;;;;6.00;4.10;;;21.30;84.30;;;;;;5056870;28;20030;-78
2023/08/28 09:32:10;;;;;;;6.38;4.30;;;21.30;84.50;;;;;;5074935;28;20029;-78
2023/08/28 09:34:38;;;;;;;6.20;4.47;;;21.30;84.50;;;;;;5074704;28;20512;-79
2023/08/28 09:37:06;;;;;;;5.72;3.97;;;21.30;84.60;;;;;;5074466;28;20039;-78
2023/08/28 09:39:32;;;;;;;6.25;3.78;;;21.30;84.60;;;;;;5074435;28;20074;-78
2023/08/28 09:41:57;;;;;;;6.13;4.00;;;21.30;84.60;;;;;;5056705;28;20028;-77
2023/08/28 09:44:26;;;;;;;6.05;3.80;;;21.30;84.40;;;;;;5056355;28;20024;-78
2023/08/28 09:46:53;;;;;;;5.68;3.80;;;21.40;84.50;;;;;;5074309;28;20039;-80
2023/08/28 09:49:19;;;;;;;5.45;3.70;;;21.30;84.30;;;;;;5074224;28;20012;-78
2023/08/28 09:51:47;;;;;;;5.78;3.90;;;21.30;84.50;;;;;;5056323;28;20024;-78
2023/08/28 09:54:14;;;;;;;5.40;3.60;;;21.30;84.60;;;;;;5056016;28;20439;-78
2023/08/28 09:56:41;;;;;;;5.07;3.47;;;21.30;84.60;;;;;;5056113;28;20025;-78
2023/08/28 09:59:09;;;;;;;5.65;3.40;;;21.30;84.60;;;;;;5074158;28;20061;-78
2023/08/28 10:01:35;;;;;;;5.40;3.40;;;21.30;84.60;;;;;;5074103;28;20060;-78
2023/08/28 10:04:15;;;;;;;5.97;3.78;;;21.30;84.60;;;;;;5055825;28;20043;-78
2023/08/28 10:06:57;;;;;;;5.80;3.73;;;21.30;84.60;;;;;;5073752;28;20064;-78
2023/08/28 10:09:25;;;;;;;5.53;3.45;;;21.30;84.70;;;;;;5055849;28;20065;-78
2023/08/28 10:11:53;;;;;;;4.95;3.33;;;21.30;84.70;;;;;;5073923;28;20024;-78
2023/08/28 10:14:22;;;;;;;5.30;3.55;;;21.30;84.60;;;;;;5073525;28;20016;-78
2023/08/28 10:17:00;;;;;;;5.30;3.25;;;21.30;84.60;;;;;;5055686;28;20020;-78
2023/08/28 10:19:38;;;;;;;5.38;3.22;;;21.40;84.60;;;;;;5073815;28;20025;-81
2023/08/28 10:22:07;;;;;;;5.30;3.33;;;21.40;84.40;;;;;;5073582;28;20020;-77
2023/08/28 10:24:35;;;;;;;5.93;3.53;;;21.40;84.40;;;;;;5055563;28;20031;-78
2023/08/28 10:27:01;;;;;;;5.32;3.33;;;21.40;84.30;;;;;;5055551;28;20027;-79
2023/08/28 10:29:28;;;;;;;5.97;3.47;;;21.40;84.30;;;;;;5055497;28;20024;-79
2023/08/28 10:31:56;;;;;;;5.50;3.47;;;21.40;84.30;;;;;;5055648;28;20028;-78
2023/08/28 10:34:24;;;;;;;5.70;3.22;;;21.40;84.30;;;;;;5055355;28;20017;-78
2023/08/28 10:36:51;;;;;;;5.05;3.17;;;21.40;84.40;;;;;;5073455;28;20048;-78
2023/08/28 10:39:17;;;;;;;5.57;3.70;;;21.40;84.60;;;;;;5073359;28;20029;-78
2023/08/28 10:41:46;;;;;;;5.18;3.20;;;21.30;84.60;;;;;;5073176;28;20019;-78
2023/08/28 10:44:12;;;;;;;5.00;3.20;;;21.30;84.70;;;;;;5055100;28;20028;-77
2023/08/28 10:46:38;;;;;;;5.20;3.00;;;21.30;84.80;;;;;;5055071;28;20021;-78
2023/08/28 10:49:05;;;;;;;5.25;3.38;;;21.30;84.90;;;;;;5073231;28;20392;-78
2023/08/28 10:51:32;;;;;;;5.25;3.40;;;21.30;84.90;;;;;;5055287;28;20052;-78
2023/08/28 10:54:07;;;;;;;5.47;3.45;;;21.20;84.90;;;;;;5055001;28;20028;-78
2023/08/28 10:56:34;;;;;;;5.47;3.38;;;21.20;84.90;;;;;;5072912;28;20032;-78
2023/08/28 10:59:24;;;;;;;5.15;3.03;;;21.20;85.00;;;;;;5073017;28;20388;-78
2023/08/28 11:01:52;;;;;;;5.32;3.13;;;21.20;85.00;;;;;;5073242;28;20039;-78
2023/08/28 11:04:18;;;;;;;4.95;2.88;;;21.20;85.10;;;;;;5054740;28;20024;-78
2023/08/28 11:06:45;;;;;;;5.30;3.00;;;21.20;85.10;;;;;;5054866;28;20021;-78
2023/08/28 11:09:29;;;;;;;4.50;2.75;;;21.20;85.10;;;;;;5055029;28;20020;-78
2023/08/28 11:11:57;;;;;;;4.70;2.72;;;21.20;85.10;;;;;;5072830;28;20059;-78
2023/08/28 11:14:23;;;;;;;5.03;2.78;;;21.20;85.10;;;;;;5072613;28;20086;-78
2023/08/28 11:17:03;;;;;;;4.93;3.00;;;21.20;85.10;;;;;;5070028;28;20024;-78
2023/08/28 11:19:29;;;;;;;5.57;3.20;;;21.20;85.20;;;;;;5092990;28;20035;-78
2023/08/28 11:21:58;;;;;;;4.35;2.80;;;21.20;85.20;;;;;;5092621;28;20025;-78
2023/08/28 11:24:24;;;;;;;4.90;3.00;;;21.20;85.20;;;;;;5092866;28;20100;-78
2023/08/28 11:26:50;;;;;;;4.47;2.75;;;21.20;85.30;;;;;;5074858;28;20020;-78
2023/08/28 11:29:26;;;;;;;4.50;2.75;;;21.20;85.30;;;;;;5074844;28;20111;-78
2023/08/28 11:31:52;;;;;;;4.55;2.70;;;21.20;85.30;;;;;;5092793;28;20472;-78
2023/08/28 11:34:18;;;;;;;4.55;2.60;;;21.20;85.20;;;;;;5094099;28;20030;-77
2023/08/28 11:36:45;;;;;;;5.10;2.70;;;21.20;85.20;;;;;;5092342;28;20035;-78
2023/08/28 11:39:24;;;;;;;3.83;2.30;;;21.20;85.20;;;;;;5074513;28;20099;-77
2023/08/28 11:41:50;;;;;;;4.45;2.60;;;21.20;85.10;;;;;;5092584;28;20020;-76
2023/08/28 11:44:16;;;;;;;3.95;2.30;;;21.20;85.00;;;;;;5092262;28;20078;-78
2023/08/28 11:46:42;;;;;;;3.85;2.30;;;21.30;84.90;;;;;;5092339;28;20032;-77
2023/08/28 11:49:08;;;;;;;3.92;2.38;;;21.30;84.80;;;;;;5092507;28;20031;-77
2023/08/28 11:51:36;;;;;;;4.10;2.55;;;21.30;84.70;;;;;;5074469;28;20031;-76
2023/08/28 11:54:03;;;;;;;3.92;2.45;;;21.40;84.70;;;;;;5092166;28;20090;-78
2023/08/28 11:56:32;;;;;;;3.88;2.33;;;21.40;84.60;;;;;;5074147;28;20059;-77
2023/08/28 11:58:59;;;;;;;3.28;2.15;;;21.40;84.60;;;;;;5092531;28;20032;-77
2023/08/28 12:01:27;;;;;;;3.97;2.50;;;21.40;84.60;;;;;;5092493;28;20051;-78
2023/08/28 12:04:00;;;;;;;3.85;2.30;;;21.30;84.60;;;;;;5074122;28;20016;-77
2023/08/28 12:06:25;;;;;;;3.90;2.35;;;21.30;84.70;;;;;;5092285;28;20039;-77
2023/08/28 12:08:51;;;;;;;4.13;2.47;;;21.30;84.90;;;;;;5074479;28;20028;-78
2023/08/28 12:11:18;;;;;;;3.42;2.17;;;21.30;85.00;;;;;;5092535;28;20055;-78
2023/08/28 12:13:44;;;;;;;3.40;2.10;;;21.30;85.10;;;;;;5074120;28;20046;-77
2023/08/28 12:16:14;;;;;;;3.67;2.35;;;21.20;85.10;;;;;;5092453;28;20114;-78
2023/08/28 12:18:51;;;;;;;3.37;2.20;;;21.20;85.20;;;;;;5092860;28;20020;-78
2023/08/28 12:21:18;;;;;;;3.80;2.30;;;21.30;85.20;;;;;;5092524;28;20089;-78
2023/08/28 12:23:56;;;;;;;3.70;2.28;;;21.20;85.10;;;;;;5074185;28;20020;-78
2023/08/28 12:26:24;;;;;;;3.85;2.35;;;21.20;85.20;;;;;;5074342;28;20630;-78
2023/08/28 12:28:53;;;;;;;3.28;2.10;;;21.20;85.20;;;;;;5074278;28;20480;-78
2023/08/28 12:31:31;;;;;;;3.63;2.15;;;21.20;85.20;;;;;;5092349;28;20156;-78
2023/08/28 12:33:57;;;;;;;3.60;2.20;;;21.20;85.20;;;;;;5094863;28;20024;-77
2023/08/28 12:36:36;;;;;;;3.20;2.20;;;21.20;85.20;;;;;;5077974;28;20039;-78
2023/08/28 12:39:03;;;;;;;3.60;2.20;;;21.20;85.30;;;;;;5077617;28;20020;-78
2023/08/28 12:41:36;;;;;;;4.03;2.10;;;21.20;85.20;;;;;;5077700;28;20024;-77
2023/08/28 12:44:02;;;;;;;3.08;2.05;;;21.20;85.20;;;;;;5077302;28;20396;-78
2023/08/28 12:46:29;;;;;;;2.90;1.90;;;21.20;85.20;;;;;;5095837;28;20069;-78
2023/08/28 12:48:54;;;;;;;2.70;1.73;;;21.20;85.10;;;;;;5077509;28;20067;-78